Aérodrome :
LOGIN :

S'inscrire | Disclaimer

   EN    FR    IT 

 










Légende :    VFR   VFR Marginal   IFR   IFR Intensif   IFR Très Intensif
Visi : 
Plafond : 
>= 8 km
>= 3000ft
5 à 8 km
1000 à 3000 ft
1500m à 5 km
500 à 1000 ft
800 à 1500m
200 à 500 ft
< 800m
< 200 ft
Symboles :   Orages  Brouillard  Fortes neiges  Fortes précipitations  Vent > 20 kt
SIGMETs :   Divers  Orages  Givrage  Turbulence  Onde Orograph.  Cendres Volcan.







- Altitude de l'aérodrome : 375 ft
- Code IATA : MST


EHBK - Maastricht Aachen

DERNIER METAR :
  • 221025Z AUTO 23013KT 9999 SCT023 16/09 Q1020 NOSIG

METARs EXPIRÉS :
  • 220955Z AUTO 23013KT 200V270 9999 FEW021 15/09 Q1020 NOSIG
  • 220925Z AUTO 21012KT 180V240 9999 FEW019 BKN031 BKN036 14/09 Q1021 NOSIG
  • 220855Z AUTO 22014KT 9999 BKN031 13/09 Q1021 NOSIG
  • 220825Z AUTO 21013KT 9999 NSC 13/08 Q1021 NOSIG
  • 220755Z AUTO 21010KT 180V240 9999 BKN045 13/09 Q1021 NOSIG

TAF TAF EHBK
Valide du 22 à 06h jusqu'au 23 à 12h UTC


220459Z 2206/2312 23010KT 9999 FEW040
BECMG 2207/2210 23012G22KT
PROB30
TEMPO 2210/2218 7000 -SHRA SCT030TCU
BECMG 2216/2219 23005KT -RA
BECMG 2223/2302 6000 RA BKN012
BECMG 2302/2305 BKN008
TEMPO 2302/2312 4000 RADZ BR BKN003
PROB40
TEMPO 2304/2312 2500 +RA
Pas de NOTAMs connus pour ce terrain.



MET'MAP, la Météo Aéronautique d'un coup d'oeil ! - Copyright ORBIFLY Décembre 2007 - Disclaimer

ORBIFLY MET'MAP TEAM :

Programmation & Développement : Alexandra Zaïnal
Conception & Développement : Baudouin d'Aumeries
Co-Programmation & Développement : Marc-Olivier Méhu
Soutien technique & logistique : Manuel Goepfert

Contact : metmap@orbifly.com




SOURCES & CREDITS :

   NOAA